sensor_id;sensor_type;location;lat;lon;timestamp;P1;durP1;ratioP1;P2;durP2;ratioP2
65009;SDS011;51556;50.002;22.014;2022-08-21T00:00:07;15.00;;;8.50;;
65009;SDS011;51556;50.002;22.014;2022-08-21T00:05:01;13.90;;;8.10;;
65009;SDS011;51556;50.002;22.014;2022-08-21T00:07:28;13.60;;;8.10;;
65009;SDS011;51556;50.002;22.014;2022-08-21T00:09:54;11.60;;;8.20;;
65009;SDS011;51556;50.002;22.014;2022-08-21T00:12:20;18.40;;;8.00;;
65009;SDS011;51556;50.002;22.014;2022-08-21T00:14:46;14.10;;;8.50;;
65009;SDS011;51556;50.002;22.014;2022-08-21T00:17:12;14.10;;;7.90;;
65009;SDS011;51556;50.002;22.014;2022-08-21T00:19:37;12.70;;;7.90;;
65009;SDS011;51556;50.002;22.014;2022-08-21T00:22:03;14.60;;;8.30;;
65009;SDS011;51556;50.002;22.014;2022-08-21T00:24:28;16.80;;;8.80;;
65009;SDS011;51556;50.002;22.014;2022-08-21T00:26:54;15.50;;;9.20;;
65009;SDS011;51556;50.002;22.014;2022-08-21T00:29:19;12.20;;;9.30;;
65009;SDS011;51556;50.002;22.014;2022-08-21T00:31:45;13.80;;;8.80;;
65009;SDS011;51556;50.002;22.014;2022-08-21T00:34:11;13.60;;;8.60;;
65009;SDS011;51556;50.002;22.014;2022-08-21T00:36:37;14.90;;;8.90;;
65009;SDS011;51556;50.002;22.014;2022-08-21T00:39:04;14.00;;;7.80;;
65009;SDS011;51556;50.002;22.014;2022-08-21T00:41:32;13.80;;;8.70;;
65009;SDS011;51556;50.002;22.014;2022-08-21T00:43:58;11.30;;;7.50;;
65009;SDS011;51556;50.002;22.014;2022-08-21T00:46:24;13.00;;;7.50;;
65009;SDS011;51556;50.002;22.014;2022-08-21T00:48:50;11.20;;;7.50;;
65009;SDS011;51556;50.002;22.014;2022-08-21T00:51:20;14.00;;;8.30;;
65009;SDS011;51556;50.002;22.014;2022-08-21T00:53:54;11.80;;;7.80;;
65009;SDS011;51556;50.002;22.014;2022-08-21T00:56:22;12.80;;;8.50;;
65009;SDS011;51556;50.002;22.014;2022-08-21T00:58:49;13.20;;;8.40;;
65009;SDS011;51556;50.002;22.014;2022-08-21T01:01:16;13.60;;;7.80;;
65009;SDS011;51556;50.002;22.014;2022-08-21T01:03:43;13.90;;;8.60;;
65009;SDS011;51556;50.002;22.014;2022-08-21T01:06:09;13.40;;;8.10;;
65009;SDS011;51556;50.002;22.014;2022-08-21T01:08:35;10.40;;;7.80;;
65009;SDS011;51556;50.002;22.014;2022-08-21T01:11:01;13.20;;;7.90;;
65009;SDS011;51556;50.002;22.014;2022-08-21T01:13:28;13.20;;;7.80;;
65009;SDS011;51556;50.002;22.014;2022-08-21T01:15:56;11.30;;;7.70;;
65009;SDS011;51556;50.002;22.014;2022-08-21T01:18:26;16.10;;;7.60;;
65009;SDS011;51556;50.002;22.014;2022-08-21T01:23:23;20.90;;;8.50;;
65009;SDS011;51556;50.002;22.014;2022-08-21T01:25:49;12.40;;;8.10;;
65009;SDS011;51556;50.002;22.014;2022-08-21T01:28:14;12.10;;;8.30;;
65009;SDS011;51556;50.002;22.014;2022-08-21T01:30:40;15.60;;;8.40;;
65009;SDS011;51556;50.002;22.014;2022-08-21T01:33:08;15.70;;;8.20;;
65009;SDS011;51556;50.002;22.014;2022-08-21T01:35:34;11.80;;;7.60;;
65009;SDS011;51556;50.002;22.014;2022-08-21T01:38:00;14.20;;;8.00;;
65009;SDS011;51556;50.002;22.014;2022-08-21T01:40:25;12.70;;;7.80;;
65009;SDS011;51556;50.002;22.014;2022-08-21T01:42:52;13.70;;;7.80;;
65009;SDS011;51556;50.002;22.014;2022-08-21T01:45:18;12.60;;;8.30;;
65009;SDS011;51556;50.002;22.014;2022-08-21T01:47:44;11.50;;;7.90;;
65009;SDS011;51556;50.002;22.014;2022-08-21T01:50:11;14.30;;;7.90;;
65009;SDS011;51556;50.002;22.014;2022-08-21T01:52:39;13.00;;;8.20;;
65009;SDS011;51556;50.002;22.014;2022-08-21T01:55:09;14.20;;;7.90;;
65009;SDS011;51556;50.002;22.014;2022-08-21T01:57:36;13.00;;;8.20;;
65009;SDS011;51556;50.002;22.014;2022-08-21T02:00:03;15.60;;;8.30;;
65009;SDS011;51556;50.002;22.014;2022-08-21T02:02:33;15.60;;;8.20;;
65009;SDS011;51556;50.002;22.014;2022-08-21T02:04:59;15.50;;;7.90;;
65009;SDS011;51556;50.002;22.014;2022-08-21T02:07:25;15.10;;;8.40;;
65009;SDS011;51556;50.002;22.014;2022-08-21T02:09:51;12.30;;;8.80;;
65009;SDS011;51556;50.002;22.014;2022-08-21T02:12:16;11.90;;;8.40;;
65009;SDS011;51556;50.002;22.014;2022-08-21T02:14:42;9.40;;;7.90;;
65009;SDS011;51556;50.002;22.014;2022-08-21T02:17:07;10.20;;;7.60;;
65009;SDS011;51556;50.002;22.014;2022-08-21T02:19:33;11.30;;;8.10;;
65009;SDS011;51556;50.002;22.014;2022-08-21T02:21:58;11.90;;;8.40;;
65009;SDS011;51556;50.002;22.014;2022-08-21T02:24:24;13.70;;;8.60;;
65009;SDS011;51556;50.002;22.014;2022-08-21T02:26:49;15.10;;;7.70;;
65009;SDS011;51556;50.002;22.014;2022-08-21T02:29:15;13.90;;;8.40;;
65009;SDS011;51556;50.002;22.014;2022-08-21T02:31:40;14.80;;;8.40;;
65009;SDS011;51556;50.002;22.014;2022-08-21T02:34:06;13.60;;;8.30;;
65009;SDS011;51556;50.002;22.014;2022-08-21T02:36:32;14.40;;;8.30;;
65009;SDS011;51556;50.002;22.014;2022-08-21T02:38:57;12.60;;;7.40;;
65009;SDS011;51556;50.002;22.014;2022-08-21T02:41:23;15.70;;;8.50;;
65009;SDS011;51556;50.002;22.014;2022-08-21T02:43:49;15.80;;;8.50;;
65009;SDS011;51556;50.002;22.014;2022-08-21T02:46:15;14.20;;;8.50;;
65009;SDS011;51556;50.002;22.014;2022-08-21T02:48:43;9.50;;;8.00;;
65009;SDS011;51556;50.002;22.014;2022-08-21T02:51:12;11.70;;;8.00;;
65009;SDS011;51556;50.002;22.014;2022-08-21T02:53:42;14.20;;;7.80;;
65009;SDS011;51556;50.002;22.014;2022-08-21T02:56:10;13.50;;;8.60;;
65009;SDS011;51556;50.002;22.014;2022-08-21T02:58:40;9.40;;;7.70;;
65009;SDS011;51556;50.002;22.014;2022-08-21T03:01:08;12.50;;;8.00;;
65009;SDS011;51556;50.002;22.014;2022-08-21T03:03:35;14.00;;;8.40;;
65009;SDS011;51556;50.002;22.014;2022-08-21T03:06:03;12.60;;;8.60;;
65009;SDS011;51556;50.002;22.014;2022-08-21T03:08:29;15.40;;;8.60;;
65009;SDS011;51556;50.002;22.014;2022-08-21T03:10:55;15.20;;;8.50;;
65009;SDS011;51556;50.002;22.014;2022-08-21T03:13:20;12.50;;;8.10;;
65009;SDS011;51556;50.002;22.014;2022-08-21T03:15:47;13.50;;;8.90;;
65009;SDS011;51556;50.002;22.014;2022-08-21T03:18:14;11.70;;;8.20;;
65009;SDS011;51556;50.002;22.014;2022-08-21T03:20:40;13.00;;;8.30;;
65009;SDS011;51556;50.002;22.014;2022-08-21T03:23:07;17.00;;;8.10;;
65009;SDS011;51556;50.002;22.014;2022-08-21T03:25:34;16.00;;;8.20;;
65009;SDS011;51556;50.002;22.014;2022-08-21T03:28:01;11.80;;;8.00;;
65009;SDS011;51556;50.002;22.014;2022-08-21T03:30:29;10.10;;;8.00;;
65009;SDS011;51556;50.002;22.014;2022-08-21T03:32:58;11.80;;;8.60;;
65009;SDS011;51556;50.002;22.014;2022-08-21T03:35:25;10.00;;;8.50;;
65009;SDS011;51556;50.002;22.014;2022-08-21T03:37:52;13.00;;;7.70;;
65009;SDS011;51556;50.002;22.014;2022-08-21T03:40:19;10.10;;;8.10;;
65009;SDS011;51556;50.002;22.014;2022-08-21T03:42:45;12.40;;;8.20;;
65009;SDS011;51556;50.002;22.014;2022-08-21T03:45:16;16.20;;;8.90;;
65009;SDS011;51556;50.002;22.014;2022-08-21T03:47:59;16.80;;;9.20;;
65009;SDS011;51556;50.002;22.014;2022-08-21T03:50:31;11.20;;;8.50;;
65009;SDS011;51556;50.002;22.014;2022-08-21T03:52:59;16.40;;;8.50;;
65009;SDS011;51556;50.002;22.014;2022-08-21T03:55:25;15.30;;;9.70;;
65009;SDS011;51556;50.002;22.014;2022-08-21T03:57:51;12.90;;;8.50;;
65009;SDS011;51556;50.002;22.014;2022-08-21T04:00:17;14.30;;;9.00;;
65009;SDS011;51556;50.002;22.014;2022-08-21T04:02:44;14.20;;;9.50;;
65009;SDS011;51556;50.002;22.014;2022-08-21T04:05:11;15.50;;;9.10;;
65009;SDS011;51556;50.002;22.014;2022-08-21T04:07:38;14.60;;;10.00;;
65009;SDS011;51556;50.002;22.014;2022-08-21T04:10:04;13.80;;;8.90;;
65009;SDS011;51556;50.002;22.014;2022-08-21T04:12:32;12.90;;;8.20;;
65009;SDS011;51556;50.002;22.014;2022-08-21T04:14:58;17.20;;;8.20;;
65009;SDS011;51556;50.002;22.014;2022-08-21T04:17:24;14.10;;;8.00;;
65009;SDS011;51556;50.002;22.014;2022-08-21T04:19:49;13.50;;;8.10;;
65009;SDS011;51556;50.002;22.014;2022-08-21T04:22:15;13.80;;;8.70;;
65009;SDS011;51556;50.002;22.014;2022-08-21T04:24:41;12.10;;;8.20;;
65009;SDS011;51556;50.002;22.014;2022-08-21T04:27:08;12.20;;;8.80;;
65009;SDS011;51556;50.002;22.014;2022-08-21T04:29:33;15.30;;;8.30;;
65009;SDS011;51556;50.002;22.014;2022-08-21T04:31:59;15.80;;;8.50;;
65009;SDS011;51556;50.002;22.014;2022-08-21T04:34:24;15.60;;;8.10;;
65009;SDS011;51556;50.002;22.014;2022-08-21T04:36:50;12.50;;;8.50;;
65009;SDS011;51556;50.002;22.014;2022-08-21T04:39:16;12.20;;;8.90;;
65009;SDS011;51556;50.002;22.014;2022-08-21T04:41:41;10.80;;;7.60;;
65009;SDS011;51556;50.002;22.014;2022-08-21T04:44:07;13.20;;;8.40;;
65009;SDS011;51556;50.002;22.014;2022-08-21T04:46:33;13.80;;;8.50;;
65009;SDS011;51556;50.002;22.014;2022-08-21T04:48:59;13.90;;;8.30;;
65009;SDS011;51556;50.002;22.014;2022-08-21T04:51:28;13.20;;;8.40;;
65009;SDS011;51556;50.002;22.014;2022-08-21T04:54:17;13.40;;;7.50;;
65009;SDS011;51556;50.002;22.014;2022-08-21T04:56:49;13.80;;;8.40;;
65009;SDS011;51556;50.002;22.014;2022-08-21T04:59:20;11.80;;;8.10;;
65009;SDS011;51556;50.002;22.014;2022-08-21T05:01:49;13.60;;;8.30;;
65009;SDS011;51556;50.002;22.014;2022-08-21T05:04:16;10.00;;;7.20;;
65009;SDS011;51556;50.002;22.014;2022-08-21T05:06:47;13.90;;;8.30;;
65009;SDS011;51556;50.002;22.014;2022-08-21T05:09:16;11.00;;;8.10;;
65009;SDS011;51556;50.002;22.014;2022-08-21T05:11:45;10.30;;;7.90;;
65009;SDS011;51556;50.002;22.014;2022-08-21T05:14:12;10.90;;;7.40;;
65009;SDS011;51556;50.002;22.014;2022-08-21T05:16:38;10.10;;;6.80;;
65009;SDS011;51556;50.002;22.014;2022-08-21T05:19:04;10.90;;;7.40;;
65009;SDS011;51556;50.002;22.014;2022-08-21T05:21:30;11.60;;;7.20;;
65009;SDS011;51556;50.002;22.014;2022-08-21T05:23:56;9.90;;;8.10;;
65009;SDS011;51556;50.002;22.014;2022-08-21T05:26:21;16.70;;;8.20;;
65009;SDS011;51556;50.002;22.014;2022-08-21T05:28:47;12.80;;;7.10;;
65009;SDS011;51556;50.002;22.014;2022-08-21T05:31:12;9.20;;;6.50;;
65009;SDS011;51556;50.002;22.014;2022-08-21T05:33:38;10.20;;;6.80;;
65009;SDS011;51556;50.002;22.014;2022-08-21T05:36:03;10.80;;;6.90;;
65009;SDS011;51556;50.002;22.014;2022-08-21T05:38:29;15.50;;;7.50;;
65009;SDS011;51556;50.002;22.014;2022-08-21T05:40:55;10.50;;;7.50;;
65009;SDS011;51556;50.002;22.014;2022-08-21T05:43:20;13.40;;;6.60;;
65009;SDS011;51556;50.002;22.014;2022-08-21T05:45:46;11.40;;;6.70;;
65009;SDS011;51556;50.002;22.014;2022-08-21T05:48:21;12.70;;;7.40;;
65009;SDS011;51556;50.002;22.014;2022-08-21T05:50:48;9.80;;;6.50;;
65009;SDS011;51556;50.002;22.014;2022-08-21T05:53:16;10.80;;;7.00;;
65009;SDS011;51556;50.002;22.014;2022-08-21T05:55:43;10.80;;;7.80;;
65009;SDS011;51556;50.002;22.014;2022-08-21T05:58:10;12.00;;;7.60;;
65009;SDS011;51556;50.002;22.014;2022-08-21T06:00:36;12.90;;;8.20;;
65009;SDS011;51556;50.002;22.014;2022-08-21T06:03:02;17.00;;;8.80;;
65009;SDS011;51556;50.002;22.014;2022-08-21T06:05:28;14.00;;;7.30;;
65009;SDS011;51556;50.002;22.014;2022-08-21T06:07:53;11.30;;;7.20;;
65009;SDS011;51556;50.002;22.014;2022-08-21T06:10:19;10.40;;;7.00;;
65009;SDS011;51556;50.002;22.014;2022-08-21T06:12:45;11.00;;;7.20;;
65009;SDS011;51556;50.002;22.014;2022-08-21T06:15:11;13.20;;;7.20;;
65009;SDS011;51556;50.002;22.014;2022-08-21T06:17:36;14.70;;;7.20;;
65009;SDS011;51556;50.002;22.014;2022-08-21T06:20:02;17.10;;;7.30;;
65009;SDS011;51556;50.002;22.014;2022-08-21T06:22:29;13.70;;;7.10;;
65009;SDS011;51556;50.002;22.014;2022-08-21T06:24:55;10.50;;;7.00;;
65009;SDS011;51556;50.002;22.014;2022-08-21T06:27:20;9.70;;;7.00;;
65009;SDS011;51556;50.002;22.014;2022-08-21T06:29:46;12.00;;;7.00;;
65009;SDS011;51556;50.002;22.014;2022-08-21T06:32:12;11.00;;;7.10;;
65009;SDS011;51556;50.002;22.014;2022-08-21T06:34:38;13.40;;;6.90;;
65009;SDS011;51556;50.002;22.014;2022-08-21T06:37:06;9.40;;;5.80;;
65009;SDS011;51556;50.002;22.014;2022-08-21T06:39:32;12.80;;;6.30;;
65009;SDS011;51556;50.002;22.014;2022-08-21T06:41:58;9.80;;;6.30;;
65009;SDS011;51556;50.002;22.014;2022-08-21T06:44:24;9.70;;;6.40;;
65009;SDS011;51556;50.002;22.014;2022-08-21T06:46:50;13.30;;;6.00;;
65009;SDS011;51556;50.002;22.014;2022-08-21T06:49:15;10.50;;;5.50;;
65009;SDS011;51556;50.002;22.014;2022-08-21T06:51:41;9.60;;;5.40;;
65009;SDS011;51556;50.002;22.014;2022-08-21T06:54:06;9.70;;;5.50;;
65009;SDS011;51556;50.002;22.014;2022-08-21T06:56:33;12.60;;;5.90;;
65009;SDS011;51556;50.002;22.014;2022-08-21T06:59:02;11.60;;;5.70;;
65009;SDS011;51556;50.002;22.014;2022-08-21T07:01:28;8.50;;;5.10;;
65009;SDS011;51556;50.002;22.014;2022-08-21T07:03:53;8.60;;;5.80;;
65009;SDS011;51556;50.002;22.014;2022-08-21T07:06:19;7.50;;;5.70;;
65009;SDS011;51556;50.002;22.014;2022-08-21T07:08:45;11.70;;;6.60;;
65009;SDS011;51556;50.002;22.014;2022-08-21T07:11:18;8.30;;;5.00;;
65009;SDS011;51556;50.002;22.014;2022-08-21T07:13:46;9.40;;;6.00;;
65009;SDS011;51556;50.002;22.014;2022-08-21T07:16:13;11.50;;;6.20;;
65009;SDS011;51556;50.002;22.014;2022-08-21T07:18:39;6.90;;;5.50;;
65009;SDS011;51556;50.002;22.014;2022-08-21T07:21:05;10.50;;;6.10;;
65009;SDS011;51556;50.002;22.014;2022-08-21T07:23:33;10.80;;;6.40;;
65009;SDS011;51556;50.002;22.014;2022-08-21T07:26:05;12.40;;;5.90;;
65009;SDS011;51556;50.002;22.014;2022-08-21T07:28:31;10.10;;;5.60;;
65009;SDS011;51556;50.002;22.014;2022-08-21T07:30:58;11.20;;;6.00;;
65009;SDS011;51556;50.002;22.014;2022-08-21T07:33:25;8.70;;;5.60;;
65009;SDS011;51556;50.002;22.014;2022-08-21T07:35:52;10.70;;;5.90;;
65009;SDS011;51556;50.002;22.014;2022-08-21T07:38:18;10.00;;;5.80;;
65009;SDS011;51556;50.002;22.014;2022-08-21T07:40:45;13.10;;;6.20;;
65009;SDS011;51556;50.002;22.014;2022-08-21T07:43:11;9.60;;;6.00;;
65009;SDS011;51556;50.002;22.014;2022-08-21T07:45:37;10.50;;;5.70;;
65009;SDS011;51556;50.002;22.014;2022-08-21T07:48:03;11.70;;;6.10;;
65009;SDS011;51556;50.002;22.014;2022-08-21T07:50:29;10.40;;;6.10;;
65009;SDS011;51556;50.002;22.014;2022-08-21T07:52:55;9.30;;;5.70;;
65009;SDS011;51556;50.002;22.014;2022-08-21T07:55:22;15.10;;;5.50;;
65009;SDS011;51556;50.002;22.014;2022-08-21T07:57:48;14.50;;;6.30;;
65009;SDS011;51556;50.002;22.014;2022-08-21T08:00:16;8.80;;;5.70;;
65009;SDS011;51556;50.002;22.014;2022-08-21T08:02:45;10.80;;;6.40;;
65009;SDS011;51556;50.002;22.014;2022-08-21T08:05:15;9.00;;;5.80;;
65009;SDS011;51556;50.002;22.014;2022-08-21T08:07:42;12.70;;;5.60;;
65009;SDS011;51556;50.002;22.014;2022-08-21T08:10:08;9.60;;;5.30;;
65009;SDS011;51556;50.002;22.014;2022-08-21T08:12:35;11.30;;;6.00;;
65009;SDS011;51556;50.002;22.014;2022-08-21T08:15:02;8.60;;;5.60;;
65009;SDS011;51556;50.002;22.014;2022-08-21T08:17:29;10.20;;;5.00;;
65009;SDS011;51556;50.002;22.014;2022-08-21T08:19:57;10.10;;;5.80;;
65009;SDS011;51556;50.002;22.014;2022-08-21T08:22:23;10.40;;;6.50;;
65009;SDS011;51556;50.002;22.014;2022-08-21T08:24:49;6.70;;;4.90;;
65009;SDS011;51556;50.002;22.014;2022-08-21T08:27:17;9.40;;;5.70;;
65009;SDS011;51556;50.002;22.014;2022-08-21T08:29:43;11.00;;;6.70;;
65009;SDS011;51556;50.002;22.014;2022-08-21T08:32:09;10.80;;;5.70;;
65009;SDS011;51556;50.002;22.014;2022-08-21T08:34:36;10.70;;;5.50;;
65009;SDS011;51556;50.002;22.014;2022-08-21T08:37:03;10.90;;;5.30;;
65009;SDS011;51556;50.002;22.014;2022-08-21T08:39:30;10.80;;;5.20;;
65009;SDS011;51556;50.002;22.014;2022-08-21T08:41:58;10.80;;;5.40;;
65009;SDS011;51556;50.002;22.014;2022-08-21T08:44:30;7.50;;;5.30;;
65009;SDS011;51556;50.002;22.014;2022-08-21T08:46:55;8.50;;;5.30;;
65009;SDS011;51556;50.002;22.014;2022-08-21T08:49:34;14.20;;;6.00;;
65009;SDS011;51556;50.002;22.014;2022-08-21T08:57:27;8.40;;;5.30;;
65009;SDS011;51556;50.002;22.014;2022-08-21T08:59:54;10.50;;;5.40;;
65009;SDS011;51556;50.002;22.014;2022-08-21T09:02:24;7.40;;;4.40;;
65009;SDS011;51556;50.002;22.014;2022-08-21T09:04:50;11.10;;;5.60;;
65009;SDS011;51556;50.002;22.014;2022-08-21T09:07:24;8.30;;;4.70;;
65009;SDS011;51556;50.002;22.014;2022-08-21T09:18:06;7.90;;;5.00;;
65009;SDS011;51556;50.002;22.014;2022-08-21T09:21:06;7.80;;;4.80;;
65009;SDS011;51556;50.002;22.014;2022-08-21T09:26:13;9.90;;;5.10;;
65009;SDS011;51556;50.002;22.014;2022-08-21T09:28:40;8.60;;;5.00;;
65009;SDS011;51556;50.002;22.014;2022-08-21T09:31:08;6.60;;;4.30;;
65009;SDS011;51556;50.002;22.014;2022-08-21T09:34:03;10.60;;;4.90;;
65009;SDS011;51556;50.002;22.014;2022-08-21T09:39:01;6.40;;;4.60;;
65009;SDS011;51556;50.002;22.014;2022-08-21T09:41:29;7.80;;;4.20;;
65009;SDS011;51556;50.002;22.014;2022-08-21T09:43:56;10.30;;;4.70;;
65009;SDS011;51556;50.002;22.014;2022-08-21T09:46:24;11.00;;;4.10;;
65009;SDS011;51556;50.002;22.014;2022-08-21T09:48:52;10.00;;;4.80;;
65009;SDS011;51556;50.002;22.014;2022-08-21T09:51:26;6.60;;;4.20;;
65009;SDS011;51556;50.002;22.014;2022-08-21T09:53:54;7.70;;;4.40;;
65009;SDS011;51556;50.002;22.014;2022-08-21T09:59:24;7.60;;;4.00;;
65009;SDS011;51556;50.002;22.014;2022-08-21T10:01:57;8.70;;;4.20;;
65009;SDS011;51556;50.002;22.014;2022-08-21T10:04:32;10.30;;;3.90;;
65009;SDS011;51556;50.002;22.014;2022-08-21T10:07:07;9.40;;;5.20;;
65009;SDS011;51556;50.002;22.014;2022-08-21T10:09:33;11.50;;;5.40;;
65009;SDS011;51556;50.002;22.014;2022-08-21T10:12:21;4.90;;;3.60;;
65009;SDS011;51556;50.002;22.014;2022-08-21T10:17:50;8.00;;;4.30;;
65009;SDS011;51556;50.002;22.014;2022-08-21T10:20:25;9.60;;;4.20;;
65009;SDS011;51556;50.002;22.014;2022-08-21T10:31:24;10.40;;;4.10;;
65009;SDS011;51556;50.002;22.014;2022-08-21T10:34:24;9.10;;;3.80;;
65009;SDS011;51556;50.002;22.014;2022-08-21T10:45:48;11.20;;;4.30;;
65009;SDS011;51556;50.002;22.014;2022-08-21T10:48:27;9.80;;;4.30;;
65009;SDS011;51556;50.002;22.014;2022-08-21T10:51:06;8.30;;;4.40;;
65009;SDS011;51556;50.002;22.014;2022-08-21T10:53:42;7.70;;;4.10;;
65009;SDS011;51556;50.002;22.014;2022-08-21T10:56:24;7.50;;;3.80;;
65009;SDS011;51556;50.002;22.014;2022-08-21T11:01:59;6.40;;;3.30;;
65009;SDS011;51556;50.002;22.014;2022-08-21T11:09:45;7.20;;;3.90;;
65009;SDS011;51556;50.002;22.014;2022-08-21T11:23:43;8.60;;;4.00;;
65009;SDS011;51556;50.002;22.014;2022-08-21T11:26:18;7.70;;;3.60;;
65009;SDS011;51556;50.002;22.014;2022-08-21T11:28:58;6.20;;;3.20;;
65009;SDS011;51556;50.002;22.014;2022-08-21T11:31:50;6.70;;;3.10;;
65009;SDS011;51556;50.002;22.014;2022-08-21T11:34:36;10.60;;;3.10;;
65009;SDS011;51556;50.002;22.014;2022-08-21T11:51:48;13.10;;;3.40;;
65009;SDS011;51556;50.002;22.014;2022-08-21T11:56:55;9.90;;;3.70;;
65009;SDS011;51556;50.002;22.014;2022-08-21T11:59:36;11.10;;;3.40;;
65009;SDS011;51556;50.002;22.014;2022-08-21T12:02:15;11.70;;;4.00;;
65009;SDS011;51556;50.002;22.014;2022-08-21T12:04:49;8.60;;;3.20;;
65009;SDS011;51556;50.002;22.014;2022-08-21T12:07:30;4.70;;;3.00;;
65009;SDS011;51556;50.002;22.014;2022-08-21T12:10:10;8.00;;;3.00;;
65009;SDS011;51556;50.002;22.014;2022-08-21T12:12:40;5.40;;;2.70;;
65009;SDS011;51556;50.002;22.014;2022-08-21T12:15:12;6.50;;;3.20;;
65009;SDS011;51556;50.002;22.014;2022-08-21T12:17:39;8.40;;;3.40;;
65009;SDS011;51556;50.002;22.014;2022-08-21T12:20:18;6.90;;;3.00;;
65009;SDS011;51556;50.002;22.014;2022-08-21T12:22:49;8.20;;;2.90;;
65009;SDS011;51556;50.002;22.014;2022-08-21T12:25:20;7.00;;;3.20;;
65009;SDS011;51556;50.002;22.014;2022-08-21T12:27:53;6.00;;;3.10;;
65009;SDS011;51556;50.002;22.014;2022-08-21T12:30:34;8.70;;;3.30;;
65009;SDS011;51556;50.002;22.014;2022-08-21T12:33:06;6.20;;;3.10;;
65009;SDS011;51556;50.002;22.014;2022-08-21T12:36:09;8.40;;;3.30;;
65009;SDS011;51556;50.002;22.014;2022-08-21T12:41:20;7.40;;;3.40;;
65009;SDS011;51556;50.002;22.014;2022-08-21T12:44:10;8.30;;;3.10;;
65009;SDS011;51556;50.002;22.014;2022-08-21T12:46:44;3.90;;;2.30;;
65009;SDS011;51556;50.002;22.014;2022-08-21T12:49:16;5.80;;;3.10;;
65009;SDS011;51556;50.002;22.014;2022-08-21T12:52:27;6.30;;;2.60;;
65009;SDS011;51556;50.002;22.014;2022-08-21T12:54:46;8.40;;;2.60;;
65009;SDS011;51556;50.002;22.014;2022-08-21T12:57:25;4.70;;;2.70;;
65009;SDS011;51556;50.002;22.014;2022-08-21T12:59:53;6.80;;;3.00;;
65009;SDS011;51556;50.002;22.014;2022-08-21T13:02:22;3.20;;;2.40;;
65009;SDS011;51556;50.002;22.014;2022-08-21T13:04:51;4.90;;;2.80;;
65009;SDS011;51556;50.002;22.014;2022-08-21T13:07:22;10.10;;;3.10;;
65009;SDS011;51556;50.002;22.014;2022-08-21T13:09:52;5.00;;;2.90;;
65009;SDS011;51556;50.002;22.014;2022-08-21T13:12:21;7.00;;;3.50;;
65009;SDS011;51556;50.002;22.014;2022-08-21T13:14:48;5.10;;;2.80;;
65009;SDS011;51556;50.002;22.014;2022-08-21T13:17:17;7.10;;;3.50;;
65009;SDS011;51556;50.002;22.014;2022-08-21T13:22:47;8.50;;;3.00;;
65009;SDS011;51556;50.002;22.014;2022-08-21T13:25:13;7.80;;;2.70;;
65009;SDS011;51556;50.002;22.014;2022-08-21T13:27:41;7.90;;;2.90;;
65009;SDS011;51556;50.002;22.014;2022-08-21T13:30:18;3.70;;;2.70;;
65009;SDS011;51556;50.002;22.014;2022-08-21T13:32:47;6.10;;;2.60;;
65009;SDS011;51556;50.002;22.014;2022-08-21T13:35:24;8.50;;;3.00;;
65009;SDS011;51556;50.002;22.014;2022-08-21T13:38:01;5.70;;;3.10;;
65009;SDS011;51556;50.002;22.014;2022-08-21T13:40:30;7.90;;;3.70;;
65009;SDS011;51556;50.002;22.014;2022-08-21T13:43:09;7.70;;;2.80;;
65009;SDS011;51556;50.002;22.014;2022-08-21T13:45:42;9.10;;;3.10;;
65009;SDS011;51556;50.002;22.014;2022-08-21T13:48:09;5.50;;;2.50;;
65009;SDS011;51556;50.002;22.014;2022-08-21T13:50:36;5.90;;;2.90;;
65009;SDS011;51556;50.002;22.014;2022-08-21T13:53:05;8.00;;;3.20;;
65009;SDS011;51556;50.002;22.014;2022-08-21T13:55:39;11.60;;;3.50;;
65009;SDS011;51556;50.002;22.014;2022-08-21T13:58:08;4.70;;;2.80;;
65009;SDS011;51556;50.002;22.014;2022-08-21T14:00:43;6.80;;;3.10;;
65009;SDS011;51556;50.002;22.014;2022-08-21T14:03:22;6.70;;;2.20;;
65009;SDS011;51556;50.002;22.014;2022-08-21T14:06:00;5.70;;;3.10;;
65009;SDS011;51556;50.002;22.014;2022-08-21T14:08:33;6.20;;;2.70;;
65009;SDS011;51556;50.002;22.014;2022-08-21T14:11:02;8.50;;;3.20;;
65009;SDS011;51556;50.002;22.014;2022-08-21T14:13:35;4.40;;;2.70;;
65009;SDS011;51556;50.002;22.014;2022-08-21T14:16:15;4.90;;;3.10;;
65009;SDS011;51556;50.002;22.014;2022-08-21T14:18:45;5.50;;;3.20;;
65009;SDS011;51556;50.002;22.014;2022-08-21T14:21:12;5.80;;;3.40;;
65009;SDS011;51556;50.002;22.014;2022-08-21T14:23:38;4.70;;;3.30;;
65009;SDS011;51556;50.002;22.014;2022-08-21T14:26:05;5.20;;;3.20;;
65009;SDS011;51556;50.002;22.014;2022-08-21T14:28:38;4.70;;;3.00;;
65009;SDS011;51556;50.002;22.014;2022-08-21T14:31:27;6.60;;;3.20;;
65009;SDS011;51556;50.002;22.014;2022-08-21T14:33:55;6.30;;;3.80;;
65009;SDS011;51556;50.002;22.014;2022-08-21T14:36:21;7.30;;;4.00;;
65009;SDS011;51556;50.002;22.014;2022-08-21T14:38:47;8.00;;;3.70;;
65009;SDS011;51556;50.002;22.014;2022-08-21T14:41:17;11.80;;;3.90;;
65009;SDS011;51556;50.002;22.014;2022-08-21T14:43:48;7.70;;;3.70;;
65009;SDS011;51556;50.002;22.014;2022-08-21T14:46:33;7.90;;;3.40;;
65009;SDS011;51556;50.002;22.014;2022-08-21T14:49:01;6.00;;;3.50;;
65009;SDS011;51556;50.002;22.014;2022-08-21T14:51:27;8.90;;;4.00;;
65009;SDS011;51556;50.002;22.014;2022-08-21T14:53:53;6.30;;;3.80;;
65009;SDS011;51556;50.002;22.014;2022-08-21T14:56:18;5.90;;;3.90;;
65009;SDS011;51556;50.002;22.014;2022-08-21T14:58:46;5.40;;;4.10;;
65009;SDS011;51556;50.002;22.014;2022-08-21T15:01:14;6.00;;;3.50;;
65009;SDS011;51556;50.002;22.014;2022-08-21T15:03:43;10.40;;;3.70;;
65009;SDS011;51556;50.002;22.014;2022-08-21T15:06:09;9.00;;;4.40;;
65009;SDS011;51556;50.002;22.014;2022-08-21T15:08:35;5.00;;;3.20;;
65009;SDS011;51556;50.002;22.014;2022-08-21T15:11:01;7.90;;;3.90;;
65009;SDS011;51556;50.002;22.014;2022-08-21T15:13:28;6.10;;;3.50;;
65009;SDS011;51556;50.002;22.014;2022-08-21T15:19:18;8.30;;;3.60;;
65009;SDS011;51556;50.002;22.014;2022-08-21T15:25:06;6.90;;;3.30;;
65009;SDS011;51556;50.002;22.014;2022-08-21T15:30:54;8.10;;;3.70;;
65009;SDS011;51556;50.002;22.014;2022-08-21T15:33:19;7.90;;;4.30;;
65009;SDS011;51556;50.002;22.014;2022-08-21T15:35:45;7.60;;;3.60;;
65009;SDS011;51556;50.002;22.014;2022-08-21T15:38:11;8.90;;;3.80;;
65009;SDS011;51556;50.002;22.014;2022-08-21T15:40:38;7.70;;;3.60;;
65009;SDS011;51556;50.002;22.014;2022-08-21T15:43:05;7.80;;;3.50;;
65009;SDS011;51556;50.002;22.014;2022-08-21T15:45:32;6.10;;;3.10;;
65009;SDS011;51556;50.002;22.014;2022-08-21T15:47:58;7.00;;;3.20;;
65009;SDS011;51556;50.002;22.014;2022-08-21T15:50:24;7.00;;;3.80;;
65009;SDS011;51556;50.002;22.014;2022-08-21T15:52:51;9.40;;;4.10;;
65009;SDS011;51556;50.002;22.014;2022-08-21T15:55:17;8.70;;;3.70;;
65009;SDS011;51556;50.002;22.014;2022-08-21T15:57:44;8.50;;;3.50;;
65009;SDS011;51556;50.002;22.014;2022-08-21T16:02:42;6.40;;;3.80;;
65009;SDS011;51556;50.002;22.014;2022-08-21T16:05:09;4.70;;;3.50;;
65009;SDS011;51556;50.002;22.014;2022-08-21T16:07:37;9.30;;;4.50;;
65009;SDS011;51556;50.002;22.014;2022-08-21T16:10:04;11.60;;;3.80;;
65009;SDS011;51556;50.002;22.014;2022-08-21T16:12:37;8.30;;;4.20;;
65009;SDS011;51556;50.002;22.014;2022-08-21T16:15:07;6.40;;;3.70;;
65009;SDS011;51556;50.002;22.014;2022-08-21T16:17:36;10.90;;;3.70;;